Terminal Aerodrome Forecast
Issued by NWS Raleigh/Durham, NC

Home | Current Version | Previous Version | Text Only | Print | Product List | Glossary On
Versions: 1 2 3 4 5 6 7 8 9 10 11 12 13 14 15 16 17 18 19 20 21 22 23 24 25 26 27 28 29 30 31 32 33 34
000
FTUS42 KRAH 302328
TAFFAY
TAF
KFAY 302328Z 3100/3124 15011KT P6SM SKC
     FM310800 00000KT 4SM BR FEW005 SCT010
     FM311000 18002KT 2SM BR BKN005
     FM311200 18002KT 3SM BR SCT005 BKN015
     FM311300 20007KT P6SM SCT040 SCT250=

USA.gov is the U.S. government's official web portal to all federal, state and local government web resources and services.